Hualapai Flat, Nevada Weather observations

Data are for 10 minute period ending at time listed.
 Day   Time   Solar   Ave.   Ave.  Ave.  Vector  Max.   Baro.   Total    
  of    of     Rad.   Air    Rel.  Wind   Wind   Wind  Press.  Precip.   
Year   Day            Temp.  Hum.  Speed  Dir.   Gust                    
2014   (PST)  Kw/m2    F      %     mph   deg.    mph    mb.     in.     
-------------------------------------------------------------------------
 263    3:30   0.00   55.8    49    7.1   300     8.7   877.2    0.00 
 263    3:40   0.00   56.0    50    7.0   305     8.3   877.2    0.00 
 263    3:50   0.00   56.2    50    5.9   309     7.4   877.2    0.00 
 263    4:00   0.00   56.2    50    6.4   300     7.4   877.2    0.00 
 263    4:10   0.00   57.1    49    5.6   314     6.9   877.2    0.00 
 263    4:20   0.00   56.5    53    5.9   327     7.2   877.0    0.00 
 263    4:30   0.00   57.1    51    4.7   316     6.7   877.2    0.00 
 263    4:40   0.00   58.3    49    4.7   332     5.8   877.2    0.00 
 263    4:50   0.00   56.4    53    4.0   356     6.6   877.3    0.00 
 263    5:00   0.00   53.9    59    3.2   194     6.5   877.4    0.00 
 263    5:10   0.00   51.6    63    4.8   238     6.8   877.4    0.00 
 263    5:20   0.00   49.2    66    4.0   211     4.9   877.6    0.00 
 263    5:30   0.00   50.4    61    2.8   220     3.9   877.5    0.00 
 263    5:40   0.00   53.6    56    3.4   212     4.7   877.6    0.00 
 263    5:50   0.01   53.7    56    4.2   206     5.0   877.8    0.00 
 263    6:00   0.02   53.7    56    4.6   215     6.2   877.9    0.00 
 263    6:10   0.04   55.1    55    4.4   214     5.6   877.9    0.00 
 263    6:20   0.06   56.2    55    3.0   201     3.9   878.0    0.00 
 263    6:30   0.09   58.0    54    2.5   179     3.5   878.1    0.00 
 263    6:40   0.12   60.2    52    1.1   163     2.6   878.2    0.00 
 263    6:50   0.14   60.3    57    1.3    54     4.5   878.3    0.00 
 263    7:00   0.17   56.6    64    2.7    32     4.1   878.4    0.00 
 263    7:10   0.20   57.3    64    2.0     6     2.9   878.5    0.00 
 263    7:20   0.23   59.7    60    1.9     8     3.1   878.5    0.00 
 263    7:30   0.27   61.2    55    1.7    25     2.5   878.5    0.00 
 263    7:40   0.30   62.1    53    1.0    39     2.3   878.6    0.00 
 263    7:50   0.33   63.8    52    0.3    44     1.4   878.7    0.00 
 263    8:00   0.36   65.3    45    0.2    62     0.9   878.7    0.00 
 263    8:10   0.39   66.6    47    0.4   119     1.5   878.7    0.00 
 263    8:20   0.42   66.9    48    1.4   129     2.5   878.7    0.00 
 263    8:30   0.45   67.8    46    0.8   150     2.0   878.7    0.00 
 263    8:40   0.48   69.7    44    0.9   151     2.3   878.8    0.00 
 263    8:50   0.51   70.3    43    1.7   132     3.2   878.8    0.00 
 263    9:00   0.53   70.9    42    1.6   134     2.8   878.8    0.00 
 263    9:10   0.56   72.6    40    2.5   152     4.8   878.7    0.00 
 263    9:20   0.58   75.3    40    4.5   166     6.4   878.7    0.00 
 263    9:30   0.60   77.3    40    4.0   175     5.4   878.7    0.00 
 263    9:40   0.62   78.7    36    3.2   164     5.0   878.6    0.00 
 263    9:50   0.64   78.4    35    2.9   164     4.8   878.5    0.00 
 263   10:00   0.66   79.3    34    4.6   156     7.5   878.4    0.00 
 263   10:10   0.68   78.2    36    3.8   148     6.1   878.3    0.00 
 263   10:20   0.69   78.8    35    3.5   159     7.8   878.2    0.00 
 263   10:30   0.71   79.4    34    3.7   134     5.7   878.1    0.00 
 263   10:40   0.72   78.5    33    2.1   151     6.3   878.0    0.00 
 263   10:50   0.73   80.7    35    3.6   169     6.5   877.8    0.00 
 263   11:00   0.75   80.0    34    1.8   148     3.7   877.7    0.00 
 263   11:10   0.72   82.0    35    3.2   209     6.0   877.7    0.00 
 263   11:20   0.74   82.9    33    4.9   169     8.0   877.4    0.00 
 263   11:30   0.72   81.9    32    4.3   137    11.0   877.2    0.00 
 263   11:40   0.74   81.1    34    4.0   150     7.1   877.1    0.00 
 263   11:50   0.74   82.6    34    3.0   141     7.7   877.0    0.00 
 263   12:00   0.57   81.8    31    1.7   108     5.0   876.9    0.00 
 263   12:10   0.57   81.2    37    3.7   121     7.5   876.7    0.00 
 263   12:20   0.62   79.4    38    6.0   136     9.9   876.8    0.00 
 263   12:30   0.76   80.7    39    5.6   148    11.1   876.7    0.00 
 263   12:40   0.63   81.8    34    3.5   121     9.1   876.5    0.00 
 263   12:50   0.77   81.8    30    3.1    92     6.4   876.4    0.00 
 263   13:00   0.65   82.0    33    3.8   113     7.5   876.4    0.00 
 263   13:10   0.59   80.9    36    4.4   120     8.7   876.4    0.00 
 263   13:20   0.53   82.6    34    4.6   186     8.6   876.4    0.00 
 263   13:30   0.45   83.9    34    2.4   153     6.1   876.2    0.00 
 263   13:40   0.39   82.6    37    4.0   150     6.4   876.1    0.00 
 263   13:50   0.39   81.5    32    3.5   146     6.6   876.0    0.00 
 263   14:00   0.36   80.6    37    3.4   127     6.4   876.0    0.00 
 263   14:10   0.33   80.8    35    2.7   142     6.3   876.0    0.00 
 263   14:20   0.32   80.0    36    4.3   116     7.5   875.9    0.00 
 263   14:30   0.30   80.0    39    1.6    90     3.0   875.8    0.00 
 263   14:40   0.30   80.8    33    1.5    99     3.7   875.7    0.00 
 263   14:50   0.32   82.9    39    0.2   190     1.2   875.7    0.00 
 263   15:00   0.28   83.1    43    0.9   206     1.6   875.5    0.00 
 263   15:10   0.25   83.8    37    0.6   221     1.6   875.4    0.00 
 263   15:20   0.23   83.4    27    1.0   281     1.9   875.4    0.00 
 263   15:30   0.21   83.3    25    0.4   271     1.2   875.4    0.00 
 263   15:40   0.18   82.5    34    1.5   306     2.3   875.3    0.00 
 263   15:50   0.15   82.3    24    1.1   306     1.8   875.1    0.00 
 263   16:00   0.14   83.0    20    1.1   265     1.7   875.0    0.00 
 263   16:10   0.14   83.0    27    1.6   235     2.2   875.0    0.00 
 263   16:20   0.14   81.6    35    1.2   194     2.3   875.0    0.00 
 263   16:30   0.13   79.7    39    4.8   147     9.1   875.0    0.00 
 263   16:40   0.11   74.9    40    8.9   133    13.9   875.1    0.00 
 263   16:50   0.09   74.3    39    9.2   138    14.5   875.2    0.00 
 263   17:00   0.07   73.3    42    7.2   142    10.2   875.2    0.00 
 263   17:10   0.05   72.8    42    6.0   145     8.1   875.2    0.00 
 263   17:20   0.05   72.6    41    4.5   135     6.3   875.2    0.00 
 263   17:30   0.03   73.5    37    4.5   126     7.1   875.1    0.00 
 263   17:40   0.02   73.7    35    4.7   110     5.8   875.1    0.00 
 263   17:50   0.01   72.8    36    4.5    90     5.3   875.3    0.00 
 263   18:00   0.01   72.8    35    4.0    75     5.2   875.3    0.00 
 263   18:10   0.01   72.6    36    4.7    79     5.4   875.4    0.00 
 263   18:20   0.00   71.7    39    3.2    30     4.3   875.4    0.00 
 263   18:30   0.00   69.9    43    4.6     4     5.0   875.4    0.00 
 263   18:40   0.00   70.8    36    3.8     2     4.3   875.4    0.00 
 263   18:50   0.00   71.9    33    3.2     2     3.9   875.5    0.00 
 263   19:00   0.00   71.1    38    5.0   342     6.7   875.6    0.00 
 263   19:10   0.00   68.8    41    5.4    40    10.7   875.8    0.00 
 263   19:20   0.00   71.6    33    8.1    85    11.9   876.0    0.00 
 263   19:30   0.00   71.9    33    5.8    90    10.6   876.0    0.00 
 263   19:40   0.00   71.2    34    3.0    84     5.5   876.0    0.00 
 263   19:50   0.00   71.5    33    1.2    29     2.3   875.8    0.00 
 263   20:00   0.00   72.5    31    1.7    50     2.5   875.8    0.00 
 263   20:10   0.00   70.8    39    4.0   354     5.6   875.8    0.00 
 263   20:20   0.00   67.8    40    5.3   299     7.5   875.9    0.00 
 263   20:30   0.00   68.4    37    5.0   289     6.6   876.0    0.00 
 263   20:40   0.00   68.1    37    5.1   293     6.7   876.0    0.00 
 263   20:50   0.00   68.3    35    5.8   283     6.8   876.0    0.00 
 263   21:00   0.00   67.1    37    5.6   262     7.0   876.2    0.00 
 263   21:10   0.00   67.2    40    5.1   250     6.2   876.2    0.00 
 263   21:20   0.00   68.2    34    4.1   264     5.4   876.3    0.00 
 263   21:30   0.00   69.7    30    3.0   280     3.9   876.3    0.00 
 263   21:40   0.00   69.6    29    3.0   278     4.4   876.3    0.00 
 263   21:50   0.00   68.7    31    1.5   304     4.6   876.5    0.00 
 263   22:00   0.00   69.2    35    1.0    51     2.3   876.7    0.00 
 263   22:10   0.00   68.2    42    2.6    66     3.7   876.9    0.00 
 263   22:20   0.00   66.2    44    2.9   103     5.0   876.9    0.00 
 263   22:30   0.00   65.4    48    5.0   194     6.8   876.6    0.00 
 263   22:40   0.00   63.5    50    2.5   238     5.3   876.5    0.00 
 263   22:50   0.00   63.9    48    0.0     9     1.0   876.6    0.00 
 263   23:00   0.00   65.1    46    3.3     1     5.4   876.7    0.00 
 263   23:10   0.00   66.1    41    2.3   344     5.3   876.8    0.00 
 263   23:20   0.00   66.8    39    3.7   288     6.3   876.8    0.00 
 263   23:30   0.00   66.2    44    3.0   301     5.0   876.8    0.00 
 263   23:40   0.00   67.7    41    2.5   284     6.0   877.0    0.00 
 263   23:50   0.00   70.0    40    2.0    22     5.3   877.3    0.00 
 264    0:00   0.00   66.5    48    4.4    56     6.6   877.5    0.00 
 264    0:10   0.00   67.4    46    6.0   102     8.8   877.6    0.00 
 264    0:20   0.00   67.6    45    7.2   122    11.5   877.6    0.00 
 264    0:30   0.00   67.8    44    8.6   123    14.6   877.7    0.00 
 264    0:40   0.00   68.0    44    8.3   102    13.6   877.8    0.00 
 264    0:50   0.00   68.4    43    9.0   100    13.0   877.9    0.00 
 264    1:00   0.00   68.3    43   10.8   111    18.3   878.0    0.00 
 264    1:10   0.00   68.5    42   11.8   122    17.8   878.0    0.00 
 264    1:20   0.00   68.3    43   10.3   127    15.1   878.2    0.00 
 264    1:30   0.00   67.8    45    7.2   138    10.2   878.2    0.00 
 264    1:40   0.00   67.2    47    6.5   136    11.0   878.3    0.00 
 264    1:50   0.00   66.3    53    5.1   131     7.7   878.3    0.00 
 264    2:00   0.00   64.3    62    5.4   125     8.6   878.4    0.00 
 264    2:10   0.00   63.3    66    4.8   158    10.0   878.3    0.00 
 264    2:20   0.00   62.8    68    5.4   154    11.0   878.2    0.00 
 264    2:30   0.00   62.5    71    2.5   165     4.7   878.1    0.00 
 264    2:40   0.00   62.2    72    1.4   232     2.3   878.0    0.00 
 264    2:50   0.00   62.9    68    0.7   232     1.4   877.9    0.00 
 264    3:00   0.00   63.8    65    1.6   236     3.3   877.7    0.00 
 264    3:10   0.00   64.1    66    1.6   300     4.5   877.5    0.00 
 264    3:20   0.00   62.2    74    4.3   343     5.0   877.2    0.00 

Return to Hualapai Flat graphs page.


Western Regional Climate Center,wrcc@dri.edu